createdAt,value
2022-10-09T00:01:13.382Z,89.28
2022-10-09T00:03:40.349Z,89.31
2022-10-09T00:06:07.531Z,88.68
2022-10-09T00:08:34.827Z,89.72
2022-10-09T00:11:08.053Z,89.62
2022-10-09T00:13:34.605Z,89.32
2022-10-09T00:16:05.388Z,89.40
2022-10-09T00:18:31.784Z,89.23
2022-10-09T00:20:58.274Z,88.85
2022-10-09T00:23:24.664Z,88.95
2022-10-09T00:25:55.349Z,88.68
2022-10-09T00:28:22.376Z,89.45
2022-10-09T00:30:48.904Z,88.99
2022-10-09T00:33:15.374Z,88.84
2022-10-09T00:35:41.861Z,89.48
2022-10-09T00:38:08.293Z,88.77
2022-10-09T00:40:35.249Z,89.09
2022-10-09T00:43:01.650Z,88.86
2022-10-09T00:45:28.094Z,88.76
2022-10-09T00:47:56.137Z,89.28
2022-10-09T00:50:45.776Z,89.47
2022-10-09T00:53:13.838Z,89.36
2022-10-09T00:55:40.246Z,89.46
2022-10-09T00:58:06.698Z,88.98
2022-10-09T01:00:33.092Z,88.75
2022-10-09T01:02:59.487Z,89.67
2022-10-09T01:05:33.087Z,89.17
2022-10-09T01:08:01.310Z,89.70
2022-10-09T01:10:37.734Z,89.84
2022-10-09T01:13:28.308Z,89.55
2022-10-09T01:15:56.837Z,89.50
2022-10-09T01:18:39.949Z,89.58
2022-10-09T01:21:16.928Z,89.27
2022-10-09T01:24:21.081Z,89.51
2022-10-09T01:27:04.474Z,89.32
2022-10-09T01:30:00.744Z,89.05
2022-10-09T01:32:39.108Z,89.52
2022-10-09T01:35:06.252Z,89.30
2022-10-09T01:37:32.703Z,89.09
2022-10-09T01:39:59.688Z,89.71
2022-10-09T01:42:26.557Z,89.27
2022-10-09T01:44:52.938Z,88.66
2022-10-09T01:47:20.137Z,89.31
2022-10-09T01:50:05.241Z,88.68
2022-10-09T01:52:41.150Z,89.81
2022-10-09T01:55:40.792Z,89.25
2022-10-09T01:58:20.520Z,88.61
2022-10-09T02:00:58.365Z,88.83
2022-10-09T02:03:24.747Z,89.16
2022-10-09T02:05:51.135Z,89.33
2022-10-09T02:08:18.700Z,88.95
2022-10-09T02:10:45.091Z,89.16
2022-10-09T02:13:11.478Z,89.05
2022-10-09T02:15:46.036Z,89.10
2022-10-09T02:18:13.303Z,89.46
2022-10-09T02:20:41.845Z,89.41
2022-10-09T02:23:08.235Z,88.86
2022-10-09T02:25:34.697Z,89.41
2022-10-09T02:28:01.093Z,89.09
2022-10-09T02:30:29.848Z,89.55
2022-10-09T02:32:56.256Z,89.50
2022-10-09T02:35:22.648Z,89.49
2022-10-09T02:37:49.046Z,89.35
2022-10-09T02:40:15.610Z,88.56
2022-10-09T02:42:41.974Z,89.35
2022-10-09T02:45:09.032Z,88.53
2022-10-09T02:47:35.404Z,88.38
2022-10-09T02:50:01.868Z,89.01
2022-10-09T02:52:28.240Z,88.57
2022-10-09T02:54:54.636Z,89.22
2022-10-09T02:57:21.019Z,89.16
2022-10-09T02:59:47.412Z,89.36
2022-10-09T03:02:13.943Z,89.46
2022-10-09T03:04:40.492Z,89.21
2022-10-09T03:07:06.888Z,89.20
2022-10-09T03:09:33.950Z,88.65
2022-10-09T03:12:00.528Z,89.71
2022-10-09T03:14:26.894Z,88.67
2022-10-09T03:16:53.284Z,89.16
2022-10-09T03:19:19.669Z,88.87
2022-10-09T03:21:46.120Z,89.52
2022-10-09T03:24:12.508Z,89.05
2022-10-09T03:26:38.912Z,89.11
2022-10-09T03:29:05.298Z,89.56
2022-10-09T03:31:52.376Z,89.38
2022-10-09T03:34:18.092Z,89.11
2022-10-09T03:36:44.468Z,89.92
2022-10-09T03:39:10.889Z,89.55
2022-10-09T03:41:37.276Z,89.35
2022-10-09T03:44:03.715Z,88.96
2022-10-09T03:46:30.211Z,89.58
2022-10-09T03:48:56.771Z,89.13
2022-10-09T03:51:23.153Z,89.32
2022-10-09T03:53:49.532Z,89.17
2022-10-09T03:56:15.933Z,88.73
2022-10-09T03:58:42.312Z,88.93
2022-10-09T04:01:08.798Z,89.02
2022-10-09T04:03:35.200Z,89.50
2022-10-09T04:06:01.586Z,88.98
2022-10-09T04:08:27.955Z,89.41
2022-10-09T04:11:00.272Z,89.44
2022-10-09T04:13:26.685Z,89.08
2022-10-09T04:15:53.292Z,89.10
2022-10-09T04:18:19.767Z,88.76
2022-10-09T04:20:53.324Z,89.13
2022-10-09T04:23:20.136Z,89.83
2022-10-09T04:25:46.516Z,89.20
2022-10-09T04:28:12.994Z,88.96
2022-10-09T04:30:39.443Z,89.32
2022-10-09T04:33:09.123Z,89.07
2022-10-09T04:35:43.880Z,89.12
2022-10-09T04:38:10.418Z,89.30
2022-10-09T04:40:37.053Z,89.54
2022-10-09T04:43:03.571Z,89.36
2022-10-09T04:45:30.011Z,89.27
2022-10-09T04:47:56.411Z,88.96
2022-10-09T04:50:22.812Z,88.97
2022-10-09T04:52:49.378Z,88.98
2022-10-09T04:55:16.054Z,89.39
2022-10-09T04:57:42.415Z,89.51
2022-10-09T05:00:09.464Z,89.60
2022-10-09T05:02:35.883Z,89.22
2022-10-09T05:05:02.608Z,89.06
2022-10-09T05:07:29.000Z,89.03
2022-10-09T05:09:55.396Z,89.44
2022-10-09T05:12:21.776Z,89.40
2022-10-09T05:14:48.245Z,89.63
2022-10-09T05:17:15.208Z,89.46
2022-10-09T05:19:42.099Z,88.98
2022-10-09T05:22:08.534Z,89.06
2022-10-09T05:24:34.949Z,89.46
2022-10-09T05:27:01.395Z,89.20
2022-10-09T05:29:27.773Z,89.39
2022-10-09T05:31:54.655Z,89.23
2022-10-09T05:34:21.108Z,89.54
2022-10-09T05:36:47.513Z,88.93
2022-10-09T05:39:13.896Z,88.93
2022-10-09T05:41:40.283Z,89.35
2022-10-09T05:44:06.667Z,89.46
2022-10-09T05:46:33.055Z,89.14
2022-10-09T05:49:01.275Z,89.02
2022-10-09T05:51:29.332Z,88.92
2022-10-09T05:53:55.878Z,89.23
2022-10-09T05:56:29.065Z,89.32
2022-10-09T05:59:06.467Z,89.43
2022-10-09T06:01:39.861Z,88.86
2022-10-09T06:04:06.866Z,89.10
2022-10-09T06:06:33.532Z,88.89
2022-10-09T06:08:59.950Z,88.96
2022-10-09T06:11:36.526Z,89.17
2022-10-09T06:14:04.024Z,88.89
2022-10-09T06:16:37.405Z,89.26
2022-10-09T06:19:04.461Z,88.87
2022-10-09T06:21:31.174Z,89.36
2022-10-09T06:23:59.005Z,88.86
2022-10-09T06:26:25.866Z,89.28
2022-10-09T06:28:52.439Z,89.13
2022-10-09T06:31:20.632Z,89.12
2022-10-09T06:33:47.637Z,88.75
2022-10-09T06:36:18.135Z,89.39
2022-10-09T06:38:44.608Z,88.87
2022-10-09T06:41:15.589Z,88.71
2022-10-09T06:43:42.394Z,89.01
2022-10-09T06:46:12.013Z,88.96
2022-10-09T06:48:39.141Z,88.87
2022-10-09T06:51:10.194Z,89.10
2022-10-09T06:53:37.813Z,88.40
2022-10-09T06:56:04.418Z,88.55
2022-10-09T06:58:30.836Z,88.44
2022-10-09T07:01:07.273Z,88.44
2022-10-09T07:03:34.220Z,88.82
2022-10-09T07:06:11.536Z,88.27
2022-10-09T07:08:38.793Z,88.99
2022-10-09T07:11:16.432Z,89.02
2022-10-09T07:13:43.023Z,88.43
2022-10-09T07:16:10.107Z,88.95
2022-10-09T07:18:36.921Z,88.06
2022-10-09T07:21:04.452Z,89.01
2022-10-09T07:23:31.312Z,88.90
2022-10-09T07:25:58.085Z,88.80
2022-10-09T07:28:25.398Z,88.09
2022-10-09T07:30:52.813Z,87.91
2022-10-09T07:33:19.478Z,88.08
2022-10-09T07:35:55.766Z,87.97
2022-10-09T07:38:22.335Z,88.26
2022-10-09T07:40:48.725Z,88.06
2022-10-09T07:43:15.109Z,87.21
2022-10-09T07:45:41.638Z,87.02
2022-10-09T07:48:08.008Z,87.94
2022-10-09T07:50:34.399Z,87.80
2022-10-09T07:53:00.765Z,88.36
2022-10-09T07:55:27.202Z,87.90
2022-10-09T07:57:53.623Z,88.05
2022-10-09T08:00:20.016Z,87.73
2022-10-09T08:02:46.722Z,87.38
2022-10-09T08:05:13.396Z,87.25
2022-10-09T08:07:39.787Z,87.72
2022-10-09T08:10:06.531Z,88.04
2022-10-09T08:12:32.933Z,87.89
2022-10-09T08:14:59.366Z,87.49
2022-10-09T08:17:25.773Z,88.06
2022-10-09T08:19:52.188Z,87.23
2022-10-09T08:22:18.564Z,87.32
2022-10-09T08:24:44.997Z,88.02
2022-10-09T08:27:11.394Z,87.28
2022-10-09T08:29:40.183Z,87.51
2022-10-09T08:32:06.872Z,86.95
2022-10-09T08:34:33.288Z,87.28
2022-10-09T08:36:59.681Z,87.00
2022-10-09T08:39:26.076Z,86.98
2022-10-09T08:41:53.273Z,86.94
2022-10-09T08:44:39.347Z,86.36
2022-10-09T08:47:07.480Z,86.29
2022-10-09T08:49:52.541Z,86.14
2022-10-09T08:52:37.528Z,86.51
2022-10-09T08:55:28.031Z,86.38
2022-10-09T08:57:56.035Z,85.98
2022-10-09T09:00:24.186Z,86.00
2022-10-09T09:03:10.899Z,86.06
2022-10-09T09:05:48.752Z,85.44
2022-10-09T09:08:54.298Z,85.39
2022-10-09T09:11:41.758Z,85.62
2022-10-09T09:14:45.678Z,86.11
2022-10-09T09:17:39.666Z,85.17
2022-10-09T09:20:20.854Z,85.25
2022-10-09T09:22:48.313Z,84.29
2022-10-09T09:25:25.897Z,83.83
2022-10-09T09:27:52.832Z,84.23
2022-10-09T09:30:23.590Z,83.60
2022-10-09T09:32:54.807Z,83.51
2022-10-09T09:36:05.401Z,83.74
2022-10-09T09:38:31.788Z,83.24
2022-10-09T09:40:58.232Z,83.41
2022-10-09T09:43:25.257Z,82.59
2022-10-09T09:45:56.190Z,81.42
2022-10-09T09:48:41.093Z,81.14
2022-10-09T09:51:33.906Z,81.79
2022-10-09T09:54:07.809Z,81.09
2022-10-09T09:57:07.070Z,80.97
2022-10-09T09:59:35.847Z,80.78
2022-10-09T10:02:21.676Z,80.90
2022-10-09T10:04:51.778Z,79.32
2022-10-09T10:07:30.497Z,79.15
2022-10-09T10:10:09.635Z,79.69
2022-10-09T10:12:43.748Z,79.23
2022-10-09T10:15:36.549Z,80.25
2022-10-09T10:18:16.186Z,79.74
2022-10-09T10:21:06.729Z,79.76
2022-10-09T10:23:53.001Z,78.66
2022-10-09T10:26:31.551Z,78.88
2022-10-09T10:29:06.290Z,79.18
2022-10-09T10:31:43.490Z,78.24
2022-10-09T10:34:15.604Z,78.03
2022-10-09T10:36:41.990Z,78.24
2022-10-09T10:39:12.663Z,77.94
2022-10-09T10:41:45.059Z,77.52
2022-10-09T10:44:23.034Z,76.61
2022-10-09T10:46:54.970Z,77.20
2022-10-09T10:49:22.183Z,76.44
2022-10-09T10:51:57.578Z,78.61
2022-10-09T10:54:40.067Z,77.38
2022-10-09T10:57:21.034Z,77.55
2022-10-09T10:59:53.560Z,78.30
2022-10-09T11:02:41.187Z,78.81
2022-10-09T11:05:08.517Z,78.67
2022-10-09T11:08:10.037Z,78.05
2022-10-09T11:10:43.405Z,75.94
2022-10-09T11:13:33.354Z,77.78
2022-10-09T11:16:01.611Z,76.96
2022-10-09T11:18:49.109Z,76.44
2022-10-09T11:21:22.719Z,75.81
2022-10-09T11:23:54.755Z,76.18
2022-10-09T11:26:42.333Z,74.83
2022-10-09T11:29:17.081Z,75.14
2022-10-09T11:31:49.892Z,75.53
2022-10-09T11:34:19.544Z,75.24
2022-10-09T11:36:45.915Z,73.54
2022-10-09T11:39:22.824Z,72.75
2022-10-09T11:41:50.742Z,72.64
2022-10-09T11:44:40.770Z,73.77
2022-10-09T11:47:44.362Z,72.72
2022-10-09T11:50:13.585Z,72.42
2022-10-09T11:52:58.294Z,74.37
2022-10-09T11:55:29.639Z,73.96
2022-10-09T11:58:06.807Z,73.52
2022-10-09T12:00:34.321Z,70.69
2022-10-09T12:03:04.967Z,71.45
2022-10-09T12:05:37.816Z,69.65
2022-10-09T12:08:27.444Z,68.71
2022-10-09T12:11:26.496Z,68.13
2022-10-09T12:13:52.742Z,64.37
2022-10-09T12:16:48.686Z,64.45
2022-10-09T12:19:22.084Z,64.80
2022-10-09T12:22:10.206Z,64.75
2022-10-09T12:24:41.166Z,65.19
2022-10-09T12:27:07.554Z,65.83
2022-10-09T12:29:44.719Z,63.51
2022-10-09T12:32:22.309Z,63.87
2022-10-09T12:34:48.876Z,64.31
2022-10-09T12:37:18.304Z,61.69
2022-10-09T12:39:45.101Z,59.89
2022-10-09T12:42:16.410Z,62.11
2022-10-09T12:44:43.484Z,62.22
2022-10-09T12:47:15.876Z,62.08
2022-10-09T12:49:42.282Z,62.39
2022-10-09T12:52:15.349Z,62.71
2022-10-09T12:54:44.828Z,62.01
2022-10-09T12:57:14.841Z,61.41
2022-10-09T12:59:41.264Z,59.80
2022-10-09T13:02:09.401Z,60.33
2022-10-09T13:04:35.887Z,59.68
2022-10-09T13:07:05.792Z,60.03
2022-10-09T13:09:36.904Z,59.21
2022-10-09T13:12:08.976Z,60.26
2022-10-09T13:14:46.081Z,59.02
2022-10-09T13:17:36.913Z,46.00
2022-10-09T13:20:12.477Z,48.82
2022-10-09T13:22:38.715Z,46.63
2022-10-09T13:25:05.796Z,49.99
2022-10-09T13:27:37.465Z,50.90
2022-10-09T13:30:04.490Z,42.87
2022-10-09T13:32:30.870Z,38.10
2022-10-09T13:34:57.241Z,31.32
2022-10-09T13:37:24.420Z,29.40
2022-10-09T13:39:54.423Z,27.92
2022-10-09T13:42:20.838Z,26.15
2022-10-09T13:44:47.276Z,26.92
2022-10-09T13:47:13.714Z,26.42
2022-10-09T13:49:40.156Z,28.38
2022-10-09T13:52:06.551Z,34.79
2022-10-09T13:54:32.926Z,39.21
2022-10-09T13:56:59.320Z,42.69
2022-10-09T13:59:25.817Z,46.83
2022-10-09T14:01:52.493Z,48.43
2022-10-09T14:04:18.941Z,51.35
2022-10-09T14:06:45.430Z,52.60
2022-10-09T14:09:11.809Z,54.54
2022-10-09T14:11:38.213Z,54.66
2022-10-09T14:14:04.585Z,55.12
2022-10-09T14:16:31.035Z,56.27
2022-10-09T14:18:58.184Z,57.79
2022-10-09T14:21:24.613Z,57.48
2022-10-09T14:23:58.477Z,58.54
2022-10-09T14:26:25.233Z,58.32
2022-10-09T14:28:52.251Z,58.64
2022-10-09T14:31:18.693Z,58.91
2022-10-09T14:33:45.435Z,59.01
2022-10-09T14:36:13.360Z,58.47
2022-10-09T14:38:39.973Z,58.45
2022-10-09T14:41:06.537Z,58.53
2022-10-09T14:43:32.965Z,59.57
2022-10-09T14:46:05.392Z,59.39
2022-10-09T14:48:31.867Z,58.74
2022-10-09T14:51:02.802Z,57.74
2022-10-09T14:53:29.201Z,57.83
2022-10-09T14:55:55.573Z,58.60
2022-10-09T14:58:21.964Z,58.81
2022-10-09T15:00:48.342Z,59.44
2022-10-09T15:03:14.739Z,59.49
2022-10-09T15:05:41.125Z,60.10
2022-10-09T15:08:07.537Z,60.17
2022-10-09T15:10:34.674Z,59.42
2022-10-09T15:13:01.056Z,60.76
2022-10-09T15:15:31.785Z,60.58
2022-10-09T15:17:59.091Z,61.09
2022-10-09T15:20:25.509Z,61.46
2022-10-09T15:22:51.901Z,62.36
2022-10-09T15:25:18.313Z,62.37
2022-10-09T15:27:44.704Z,62.65
2022-10-09T15:30:11.544Z,63.32
2022-10-09T15:32:37.933Z,63.56
2022-10-09T15:35:04.612Z,63.33
2022-10-09T15:37:31.046Z,63.57
2022-10-09T15:39:57.441Z,62.63
2022-10-09T15:42:23.897Z,63.32
2022-10-09T15:44:50.354Z,63.39
2022-10-09T15:47:16.943Z,63.73
2022-10-09T15:49:49.040Z,63.87
2022-10-09T15:52:19.062Z,63.71
2022-10-09T15:54:45.460Z,63.94
2022-10-09T15:57:11.854Z,63.38
2022-10-09T15:59:38.226Z,63.99
2022-10-09T16:02:04.624Z,64.01
2022-10-09T16:04:30.992Z,64.24
2022-10-09T16:06:57.375Z,64.72
2022-10-09T16:09:23.922Z,64.86
2022-10-09T16:11:50.440Z,65.10
2022-10-09T16:14:16.823Z,65.58
2022-10-09T16:16:43.209Z,65.45
2022-10-09T16:19:09.589Z,66.50
2022-10-09T16:21:35.999Z,66.79
2022-10-09T16:24:02.375Z,67.33
2022-10-09T16:26:28.920Z,67.29
2022-10-09T16:28:56.463Z,67.06
2022-10-09T16:31:27.078Z,67.63
2022-10-09T16:33:53.454Z,68.42
2022-10-09T16:36:19.918Z,67.96
2022-10-09T16:38:46.355Z,68.45
2022-10-09T16:41:14.778Z,68.81
2022-10-09T16:43:41.236Z,68.89
2022-10-09T16:49:01.878Z,69.18
2022-10-09T16:51:30.166Z,69.46
2022-10-09T16:53:57.774Z,69.69
2022-10-09T16:56:25.854Z,69.74
2022-10-09T16:58:56.786Z,70.49
2022-10-09T17:01:23.817Z,70.22
2022-10-09T17:03:50.277Z,70.40
2022-10-09T17:06:17.525Z,70.75
2022-10-09T17:08:45.191Z,71.64
2022-10-09T17:11:12.682Z,71.49
2022-10-09T17:13:39.168Z,71.89
2022-10-09T17:16:18.003Z,72.54
2022-10-09T17:18:45.862Z,72.47
2022-10-09T17:21:12.702Z,72.84
2022-10-09T17:23:39.223Z,72.88
2022-10-09T17:26:13.184Z,73.47
2022-10-09T17:28:40.355Z,73.50
2022-10-09T17:31:08.830Z,74.23
2022-10-09T17:33:35.454Z,74.00
2022-10-09T17:36:03.082Z,74.39
2022-10-09T17:38:29.597Z,75.02
2022-10-09T17:40:56.090Z,75.31
2022-10-09T17:43:22.811Z,75.24
2022-10-09T17:45:49.436Z,75.80
2022-10-09T17:48:15.823Z,75.48
2022-10-09T17:50:50.792Z,76.17
2022-10-09T17:53:17.226Z,76.59
2022-10-09T17:55:43.832Z,76.42
2022-10-09T17:58:10.378Z,76.17
2022-10-09T18:00:37.896Z,76.59
2022-10-09T18:03:04.487Z,76.82
2022-10-09T18:05:31.078Z,76.76
2022-10-09T18:07:57.492Z,76.72
2022-10-09T18:10:23.941Z,76.84
2022-10-09T18:12:50.507Z,77.12
2022-10-09T18:15:16.982Z,77.46
2022-10-09T18:17:43.495Z,77.46
2022-10-09T18:20:09.897Z,77.93
2022-10-09T18:22:36.705Z,77.34
2022-10-09T18:25:03.755Z,77.76
2022-10-09T18:27:30.170Z,77.07
2022-10-09T18:29:56.915Z,77.60
2022-10-09T18:32:23.297Z,77.16
2022-10-09T18:34:49.671Z,76.98
2022-10-09T18:37:16.132Z,77.23
2022-10-09T18:39:42.583Z,77.14
2022-10-09T18:42:09.021Z,77.43
2022-10-09T18:44:35.439Z,77.21
2022-10-09T18:47:02.591Z,77.47
2022-10-09T18:49:30.442Z,77.08
2022-10-09T18:51:57.401Z,77.38
2022-10-09T18:54:23.805Z,77.53
2022-10-09T18:56:50.309Z,77.03
2022-10-09T18:59:18.736Z,76.94
2022-10-09T19:01:45.185Z,77.02
2022-10-09T19:04:11.729Z,77.14
2022-10-09T19:06:38.155Z,76.95
2022-10-09T19:09:04.678Z,76.82
2022-10-09T19:11:32.130Z,76.91
2022-10-09T19:14:00.012Z,76.23
2022-10-09T19:16:31.636Z,76.76
2022-10-09T19:18:58.161Z,76.51
2022-10-09T19:21:24.720Z,76.44
2022-10-09T19:23:51.602Z,77.16
2022-10-09T19:26:18.156Z,77.12
2022-10-09T19:28:44.626Z,76.72
2022-10-09T19:31:11.398Z,77.02
2022-10-09T19:33:38.366Z,76.64
2022-10-09T19:36:05.053Z,77.05
2022-10-09T19:38:31.523Z,76.59
2022-10-09T19:41:05.242Z,76.94
2022-10-09T19:43:31.638Z,76.78
2022-10-09T19:46:06.367Z,76.10
2022-10-09T19:48:32.981Z,76.34
2022-10-09T19:50:59.398Z,76.21
2022-10-09T19:53:25.784Z,75.96
2022-10-09T19:55:52.161Z,76.17
2022-10-09T19:58:18.535Z,76.52
2022-10-09T20:00:45.024Z,76.22
2022-10-09T20:03:11.413Z,76.13
2022-10-09T20:05:37.832Z,76.18
2022-10-09T20:08:04.324Z,76.38
2022-10-09T20:10:30.760Z,75.78
2022-10-09T20:12:57.140Z,76.50
2022-10-09T20:15:23.542Z,75.75
2022-10-09T20:17:49.925Z,76.30
2022-10-09T20:20:16.371Z,75.85
2022-10-09T20:22:42.762Z,75.87
2022-10-09T20:25:09.345Z,75.83
2022-10-09T20:27:35.724Z,76.07
2022-10-09T20:30:02.121Z,76.21
2022-10-09T20:32:28.528Z,75.71
2022-10-09T20:34:54.906Z,76.07
2022-10-09T20:37:21.291Z,76.05
2022-10-09T20:39:47.691Z,76.09
2022-10-09T20:42:14.168Z,75.77
2022-10-09T20:44:40.554Z,75.59
2022-10-09T20:47:06.940Z,75.76
2022-10-09T20:49:33.379Z,76.06
2022-10-09T20:51:59.769Z,75.30
2022-10-09T20:54:26.231Z,75.75
2022-10-09T20:56:52.634Z,76.14
2022-10-09T20:59:19.096Z,76.07
2022-10-09T21:01:46.944Z,76.34
2022-10-09T21:04:13.418Z,75.52
2022-10-09T21:06:39.898Z,76.22
2022-10-09T21:09:06.490Z,75.89
2022-10-09T21:11:33.146Z,76.06
2022-10-09T21:13:59.639Z,75.87
2022-10-09T21:16:26.119Z,75.71
2022-10-09T21:18:59.612Z,76.16
2022-10-09T21:21:26.129Z,76.05
2022-10-09T21:23:53.362Z,75.40
2022-10-09T21:26:21.269Z,76.11
2022-10-09T21:28:47.784Z,76.25
2022-10-09T21:31:21.871Z,76.07
2022-10-09T21:33:48.593Z,76.04
2022-10-09T21:36:27.112Z,76.03
2022-10-09T21:38:53.616Z,75.40
2022-10-09T21:41:20.090Z,75.39
2022-10-09T21:43:46.529Z,75.46
2022-10-09T21:46:13.039Z,76.52
2022-10-09T21:48:39.502Z,75.50
2022-10-09T21:51:05.932Z,76.14
2022-10-09T21:53:32.381Z,75.93
2022-10-09T21:55:58.785Z,76.62
2022-10-09T21:58:25.278Z,76.60
2022-10-09T22:00:58.603Z,76.02
2022-10-09T22:03:25.865Z,76.11
2022-10-09T22:05:52.312Z,77.11
2022-10-09T22:08:18.762Z,76.28
2022-10-09T22:10:45.130Z,76.71
2022-10-09T22:13:11.624Z,77.46
2022-10-09T22:15:41.497Z,77.25
2022-10-09T22:18:07.731Z,77.69
2022-10-09T22:20:34.278Z,77.77
2022-10-09T22:23:00.661Z,77.38
2022-10-09T22:25:27.049Z,77.49
2022-10-09T22:27:53.454Z,77.86
2022-10-09T22:30:19.896Z,77.83
2022-10-09T22:32:46.266Z,78.84
2022-10-09T22:35:12.678Z,78.80
2022-10-09T22:37:39.044Z,77.91
2022-10-09T22:40:05.904Z,79.05
2022-10-09T22:42:33.122Z,78.79
2022-10-09T22:44:59.500Z,78.82
2022-10-09T22:47:25.896Z,79.22
2022-10-09T22:49:52.278Z,78.28
2022-10-09T22:52:18.680Z,78.35
2022-10-09T22:54:45.042Z,79.01
2022-10-09T22:57:11.436Z,79.37
2022-10-09T22:59:37.839Z,79.56
2022-10-09T23:02:04.218Z,78.92
2022-10-09T23:04:30.589Z,78.88
2022-10-09T23:06:57.517Z,79.08
2022-10-09T23:09:25.802Z,78.60
2022-10-09T23:11:52.300Z,78.98
2022-10-09T23:14:19.722Z,78.93
2022-10-09T23:16:46.090Z,79.24
2022-10-09T23:19:12.696Z,79.71
2022-10-09T23:21:40.062Z,79.53
2022-10-09T23:24:06.677Z,78.92
2022-10-09T23:26:33.389Z,79.71
2022-10-09T23:29:05.130Z,79.80
2022-10-09T23:31:31.537Z,79.02
2022-10-09T23:33:58.079Z,79.91
2022-10-09T23:36:27.159Z,79.53
2022-10-09T23:38:53.662Z,79.98
2022-10-09T23:41:21.701Z,79.67
2022-10-09T23:43:48.204Z,79.55
2022-10-09T23:46:28.554Z,79.47
2022-10-09T23:48:55.110Z,79.80
2022-10-09T23:51:22.226Z,79.69
2022-10-09T23:53:48.612Z,79.21
2022-10-09T23:56:18.901Z,79.62
2022-10-09T23:58:45.388Z,79.57
